Time;durP1;ratioP1;P1;durP2;ratioP2;P2;SDS_P1;SDS_P2;PMS_P1;PMS_P2;Temp;Humidity;BMP_temperature;BMP_pressure;BME280_temperature;BME280_humidity;BME280_pressure;Samples;Min_cycle;Max_cycle;Signal;HPM_P1;HPM_P2
2022/09/18 00:00:47;;;;;;;8.82;1.88;;;10.40;99.90;;;;;;6000880;23;20020;-88
2022/09/18 00:03:14;;;;;;;8.80;1.75;;;10.50;99.90;;;;;;6001425;23;20134;-88
2022/09/18 00:05:41;;;;;;;9.10;1.88;;;10.40;99.90;;;;;;6001941;23;20011;-87
2022/09/18 00:08:07;;;;;;;11.48;2.10;;;10.40;99.90;;;;;;6004337;23;20063;-87
2022/09/18 00:10:38;;;;;;;9.70;2.30;;;10.40;99.90;;;;;;6003959;23;20008;-87
2022/09/18 00:13:03;;;;;;;12.60;1.77;;;10.40;99.90;;;;;;6003816;23;20036;-87
2022/09/18 00:15:29;;;;;;;10.30;2.03;;;10.40;99.90;;;;;;6002782;23;20015;-87
2022/09/18 00:17:55;;;;;;;11.18;1.90;;;10.40;99.90;;;;;;6002703;23;20016;-87
2022/09/18 00:20:20;;;;;;;10.18;2.17;;;10.40;99.90;;;;;;6001911;23;20027;-88
2022/09/18 00:22:46;;;;;;;10.10;1.80;;;10.40;99.90;;;;;;6003865;23;20008;-87
2022/09/18 00:25:12;;;;;;;12.75;2.20;;;10.30;99.90;;;;;;6002406;23;20092;-86
2022/09/18 00:27:37;;;;;;;11.18;2.15;;;10.40;99.90;;;;;;5978010;23;20016;-87
2022/09/18 00:30:03;;;;;;;9.82;2.05;;;10.30;99.90;;;;;;6002674;23;20020;-87
2022/09/18 00:32:29;;;;;;;11.63;2.20;;;10.30;99.90;;;;;;6002038;23;20050;-87
2022/09/18 00:34:55;;;;;;;12.05;2.40;;;10.30;99.90;;;;;;6001180;23;20056;-88
2022/09/18 00:37:20;;;;;;;9.93;1.73;;;10.30;99.90;;;;;;6003782;23;20039;-87
2022/09/18 00:39:46;;;;;;;9.07;1.90;;;10.30;99.90;;;;;;6001851;23;20026;-87
2022/09/18 00:42:12;;;;;;;12.18;2.55;;;10.30;99.90;;;;;;6001954;23;20016;-87
2022/09/18 00:44:39;;;;;;;10.80;2.05;;;10.30;99.90;;;;;;6001733;23;20043;-86
2022/09/18 00:47:16;;;;;;;11.48;2.28;;;10.30;99.90;;;;;;6002507;23;20026;-86
2022/09/18 00:49:48;;;;;;;9.55;2.55;;;10.30;99.90;;;;;;6001330;23;20011;-86
2022/09/18 00:52:16;;;;;;;14.90;2.33;;;10.30;99.90;;;;;;6003733;23;20051;-87
2022/09/18 00:54:49;;;;;;;11.70;2.38;;;10.40;99.90;;;;;;6001980;23;20023;-87
2022/09/18 00:57:29;;;;;;;11.48;2.50;;;10.40;99.90;;;;;;6003476;23;20012;-86
2022/09/18 00:59:55;;;;;;;13.82;2.42;;;10.40;99.90;;;;;;6002242;23;20016;-87
2022/09/18 01:02:21;;;;;;;14.48;2.60;;;10.40;99.90;;;;;;6001032;23;20058;-87
2022/09/18 01:04:48;;;;;;;12.10;2.25;;;10.40;99.90;;;;;;6000611;23;20020;-87
2022/09/18 01:07:24;;;;;;;14.45;2.47;;;10.40;99.90;;;;;;6002864;23;20015;-87
2022/09/18 01:10:34;;;;;;;11.52;2.30;;;10.30;99.90;;;;;;6002628;23;20016;-88
2022/09/18 01:13:25;;;;;;;11.13;2.20;;;10.40;99.90;;;;;;5955003;23;20016;-86
2022/09/18 01:16:20;;;;;;;;;;;10.30;99.90;;;;;;6002377;23;20095;-87
2022/09/18 01:18:59;;;;;;;12.80;2.35;;;10.20;99.90;;;;;;5975848;23;19922;-86
2022/09/18 01:21:36;;;;;;;11.35;2.10;;;10.30;99.90;;;;;;6002004;23;20011;-86
2022/09/18 01:24:41;;;;;;;12.45;2.13;;;10.40;99.90;;;;;;6001263;23;20031;-86
2022/09/18 01:27:15;;;;;;;15.40;2.42;;;10.40;99.90;;;;;;6003263;23;20012;-86
2022/09/18 01:29:59;;;;;;;9.32;2.20;;;10.40;99.90;;;;;;6002493;23;20015;-86
2022/09/18 01:32:28;;;;;;;12.02;2.13;;;10.40;99.90;;;;;;6003404;23;20374;-86
2022/09/18 01:34:57;;;;;;;11.63;2.15;;;10.50;99.90;;;;;;6002121;23;20012;-86
2022/09/18 01:37:34;;;;;;;11.07;2.35;;;10.50;99.90;;;;;;6003585;23;20067;-85
2022/09/18 01:40:18;;;;;;;9.80;2.30;;;10.50;99.90;;;;;;6000620;23;20334;-85
2022/09/18 01:42:47;;;;;;;11.75;2.20;;;10.60;99.90;;;;;;6003150;23;20078;-86
2022/09/18 01:45:19;;;;;;;9.55;2.00;;;10.60;99.90;;;;;;5977856;23;20016;-87
2022/09/18 01:48:05;;;;;;;8.88;1.77;;;10.60;99.90;;;;;;6000750;23;20023;-87
2022/09/18 01:50:34;;;;;;;10.85;2.10;;;10.60;99.90;;;;;;6001315;23;20323;-86
2022/09/18 01:53:32;;;;;;;8.90;1.92;;;10.70;99.90;;;;;;6002153;23;20016;-87
2022/09/18 01:56:21;;;;;;;11.95;2.35;;;10.70;99.90;;;;;;5985956;23;20020;-86
2022/09/18 01:58:48;;;;;;;12.88;2.30;;;10.70;99.90;;;;;;6004620;23;20095;-86
2022/09/18 02:01:18;;;;;;;12.68;2.20;;;10.70;99.90;;;;;;6007813;23;20027;-87
2022/09/18 02:03:55;;;;;;;9.57;2.05;;;10.80;99.90;;;;;;6005404;23;20051;-87
2022/09/18 02:06:43;;;;;;;11.68;1.83;;;10.80;99.90;;;;;;6001987;23;20450;-86
2022/09/18 02:09:10;;;;;;;11.07;2.38;;;10.70;99.90;;;;;;6002325;23;20019;-86
2022/09/18 02:11:41;;;;;;;10.48;1.80;;;10.80;99.90;;;;;;5977472;23;20090;-86
2022/09/18 02:14:22;;;;;;;11.82;2.13;;;10.80;99.90;;;;;;6000885;23;20083;-86
2022/09/18 02:16:50;;;;;;;;;;;10.80;99.90;;;;;;6001526;23;20023;-85
2022/09/18 02:19:30;;;;;;;10.32;2.00;;;10.70;99.90;;;;;;6002313;23;19914;-85
2022/09/18 02:21:58;;;;;;;9.98;2.15;;;10.80;99.90;;;;;;6001695;23;20012;-85
2022/09/18 02:24:29;;;;;;;9.77;2.35;;;10.70;99.90;;;;;;6000188;23;20020;-85
2022/09/18 02:26:55;;;;;;;8.68;2.05;;;10.80;99.90;;;;;;6003278;23;20020;-85
2022/09/18 02:29:23;;;;;;;8.82;1.70;;;10.80;99.90;;;;;;6003268;23;20092;-86
2022/09/18 02:31:49;;;;;;;9.07;1.85;;;10.80;99.90;;;;;;6000185;23;20015;-86
2022/09/18 02:34:16;;;;;;;10.15;2.30;;;10.80;99.90;;;;;;6002388;23;20043;-86
2022/09/18 02:37:01;;;;;;;10.40;2.00;;;10.80;99.90;;;;;;6003205;23;20023;-85
2022/09/18 02:39:40;;;;;;;11.90;2.08;;;10.80;99.90;;;;;;6003729;23;20016;-85
2022/09/18 02:42:15;;;;;;;11.60;2.45;;;10.80;99.90;;;;;;6004815;23;20027;-85
2022/09/18 02:45:12;;;;;;;11.20;2.45;;;10.80;99.90;;;;;;6004254;23;20020;-85
2022/09/18 02:48:02;;;;;;;12.18;2.08;;;10.80;99.90;;;;;;6002236;23;20091;-85
2022/09/18 02:50:46;;;;;;;11.18;2.20;;;10.80;99.90;;;;;;6004683;23;20401;-86
2022/09/18 02:53:35;;;;;;;10.02;1.85;;;10.90;99.90;;;;;;6002893;23;20027;-85
2022/09/18 02:56:38;;;;;;;10.18;1.92;;;10.90;99.90;;;;;;6004797;23;20011;-86
2022/09/18 02:59:17;;;;;;;8.73;2.08;;;10.90;99.90;;;;;;6001715;23;20425;-85
2022/09/18 03:01:44;;;;;;;9.30;1.90;;;10.90;99.90;;;;;;6004760;23;20035;-85
2022/09/18 03:04:13;;;;;;;9.43;1.90;;;10.90;99.90;;;;;;6002933;23;20046;-85
2022/09/18 03:06:39;;;;;;;9.85;2.00;;;10.90;99.90;;;;;;6004106;23;20067;-86
2022/09/18 03:09:04;;;;;;;10.82;1.70;;;10.90;99.90;;;;;;6004983;23;20440;-86
2022/09/18 03:11:30;;;;;;;10.63;1.80;;;11.00;99.90;;;;;;6005412;23;20027;-87
2022/09/18 03:13:55;;;;;;;11.60;1.88;;;11.00;99.90;;;;;;6005123;23;20044;-85
2022/09/18 03:16:21;;;;;;;10.23;1.70;;;11.00;99.90;;;;;;6003809;23;20067;-86
2022/09/18 03:18:47;;;;;;;9.35;1.95;;;11.00;99.90;;;;;;6003368;23;20022;-86
2022/09/18 03:21:12;;;;;;;9.07;2.13;;;11.10;99.90;;;;;;6003596;23;20054;-86
2022/09/18 03:23:38;;;;;;;12.02;2.05;;;11.10;99.90;;;;;;6002343;23;20023;-86
2022/09/18 03:26:03;;;;;;;12.07;1.98;;;11.20;99.90;;;;;;6002623;23;20027;-85
2022/09/18 03:28:32;;;;;;;9.90;1.80;;;11.20;99.90;;;;;;6004077;23;20020;-86
2022/09/18 03:30:58;;;;;;;11.32;2.00;;;11.20;99.90;;;;;;6002829;23;20075;-86
2022/09/18 03:33:23;;;;;;;11.18;2.08;;;11.20;99.90;;;;;;6004339;23;20023;-86
2022/09/18 03:35:49;;;;;;;8.75;1.65;;;11.20;99.90;;;;;;6002976;23;20395;-85
2022/09/18 03:38:14;;;;;;;10.82;1.70;;;11.30;99.90;;;;;;6002548;23;20055;-86
2022/09/18 03:40:44;;;;;;;8.23;1.60;;;11.30;99.90;;;;;;6003142;23;20022;-85
2022/09/18 03:43:10;;;;;;;6.80;1.60;;;11.30;99.90;;;;;;6004931;23;20056;-86
2022/09/18 03:45:36;;;;;;;9.43;1.80;;;11.30;99.90;;;;;;6002307;23;20016;-86
2022/09/18 03:48:02;;;;;;;7.93;1.42;;;11.30;99.90;;;;;;6001957;23;20016;-86
2022/09/18 03:50:28;;;;;;;10.18;1.80;;;11.20;99.90;;;;;;6002850;23;20012;-85
2022/09/18 03:52:54;;;;;;;7.28;1.80;;;11.30;99.90;;;;;;6002751;23;20087;-86
2022/09/18 03:55:21;;;;;;;10.20;1.60;;;11.30;99.90;;;;;;6002846;23;20019;-84
2022/09/18 03:57:47;;;;;;;9.15;1.75;;;11.30;99.90;;;;;;6003668;23;20008;-84
2022/09/18 04:00:13;;;;;;;9.00;1.70;;;11.30;99.90;;;;;;6004502;23;20452;-85
2022/09/18 04:02:39;;;;;;;10.35;1.85;;;11.30;99.90;;;;;;6001321;23;20091;-85
2022/09/18 04:05:05;;;;;;;9.60;1.67;;;11.30;99.90;;;;;;6001802;23;20398;-86
2022/09/18 04:07:31;;;;;;;8.90;1.58;;;11.30;99.90;;;;;;6003204;23;20086;-84
2022/09/18 04:09:57;;;;;;;10.40;1.70;;;11.30;99.90;;;;;;6003233;23;20015;-84
2022/09/18 04:12:23;;;;;;;8.43;1.45;;;11.30;99.90;;;;;;6003424;23;20023;-85
2022/09/18 04:14:48;;;;;;;6.35;1.45;;;11.30;99.90;;;;;;6006137;23;20023;-84
2022/09/18 04:17:14;;;;;;;9.98;1.58;;;11.30;99.90;;;;;;6005988;23;20059;-85
2022/09/18 04:19:40;;;;;;;6.68;1.35;;;11.30;99.90;;;;;;6005078;23;20020;-84
2022/09/18 04:22:05;;;;;;;7.38;1.42;;;11.20;99.90;;;;;;6003362;23;20008;-84
2022/09/18 04:24:31;;;;;;;7.30;1.20;;;11.20;99.90;;;;;;6003705;23;20050;-84
2022/09/18 04:26:57;;;;;;;8.50;1.70;;;11.20;99.90;;;;;;6001733;23;20031;-85
2022/09/18 04:29:22;;;;;;;7.88;1.30;;;11.20;99.90;;;;;;6003140;23;20031;-83
2022/09/18 04:31:48;;;;;;;8.35;1.65;;;11.20;99.90;;;;;;6003338;23;20016;-84
2022/09/18 04:34:14;;;;;;;8.60;1.63;;;11.10;99.90;;;;;;6002989;23;20022;-85
2022/09/18 04:36:40;;;;;;;8.75;1.45;;;11.10;99.90;;;;;;6002152;23;20075;-84
2022/09/18 04:39:05;;;;;;;7.28;1.63;;;11.10;99.90;;;;;;6001758;23;20020;-84
2022/09/18 04:41:31;;;;;;;6.90;1.40;;;11.10;99.90;;;;;;6002222;23;20020;-84
2022/09/18 04:43:57;;;;;;;10.10;1.88;;;11.10;99.90;;;;;;6002513;23;20102;-85
2022/09/18 04:46:22;;;;;;;8.70;1.48;;;11.10;99.90;;;;;;6001853;23;20019;-84
2022/09/18 04:48:48;;;;;;;7.97;1.60;;;11.10;99.90;;;;;;6002707;23;20016;-85
2022/09/18 04:51:14;;;;;;;8.77;1.70;;;11.10;99.90;;;;;;6001556;23;20091;-86
2022/09/18 04:53:40;;;;;;;8.70;1.48;;;11.10;99.90;;;;;;6001285;23;20083;-85
2022/09/18 04:56:06;;;;;;;6.60;1.50;;;11.10;99.90;;;;;;6001336;23;20024;-85
2022/09/18 04:58:32;;;;;;;8.02;1.85;;;11.10;99.90;;;;;;6001704;23;20060;-84
2022/09/18 05:00:58;;;;;;;10.13;1.77;;;11.10;99.90;;;;;;6003432;23;20019;-84
2022/09/18 05:03:23;;;;;;;8.25;1.85;;;11.10;99.90;;;;;;6003446;23;20386;-85
2022/09/18 05:05:50;;;;;;;8.43;1.48;;;11.10;99.90;;;;;;6001860;23;20027;-85
2022/09/18 05:08:16;;;;;;;9.40;1.65;;;11.10;99.90;;;;;;5999803;23;20091;-85
2022/09/18 05:10:42;;;;;;;8.55;1.58;;;11.20;99.90;;;;;;5998154;23;20054;-85
2022/09/18 05:13:08;;;;;;;6.40;1.50;;;11.20;99.90;;;;;;6003314;23;20016;-85
2022/09/18 05:15:34;;;;;;;8.32;1.67;;;11.20;99.90;;;;;;6002269;23;20050;-86
2022/09/18 05:18:02;;;;;;;6.30;1.52;;;11.20;99.90;;;;;;6001869;23;20103;-86
2022/09/18 05:20:29;;;;;;;7.88;1.65;;;11.20;99.90;;;;;;6001704;23;20106;-85
2022/09/18 05:22:54;;;;;;;6.65;1.30;;;11.20;99.90;;;;;;6002434;23;20458;-86
2022/09/18 05:25:21;;;;;;;6.75;1.38;;;11.30;99.90;;;;;;5976716;23;20020;-87
2022/09/18 05:27:54;;;;;;;6.68;1.25;;;11.20;99.90;;;;;;5999332;23;20395;-85
2022/09/18 05:30:20;;;;;;;9.48;1.95;;;11.30;99.90;;;;;;6002494;23;20078;-85
2022/09/18 05:33:12;;;;;;;9.80;1.90;;;11.20;99.90;;;;;;6000553;23;20008;-86
2022/09/18 05:35:38;;;;;;;8.07;1.80;;;11.20;99.90;;;;;;5995848;23;20052;-85
2022/09/18 05:38:05;;;;;;;6.97;1.40;;;11.20;99.90;;;;;;6003473;23;20067;-85
2022/09/18 05:40:34;;;;;;;6.38;1.80;;;11.20;99.90;;;;;;6001744;23;20012;-85
2022/09/18 05:43:01;;;;;;;9.43;1.50;;;11.20;99.90;;;;;;6002683;23;20024;-86
2022/09/18 05:45:27;;;;;;;8.70;1.80;;;11.10;99.90;;;;;;6001786;23;20047;-86
2022/09/18 05:48:04;;;;;;;10.10;1.80;;;11.20;99.90;;;;;;5978050;23;20420;-86
2022/09/18 05:50:30;;;;;;;8.88;1.52;;;11.10;99.90;;;;;;6000800;23;20366;-86
2022/09/18 05:53:10;;;;;;;9.38;1.48;;;11.10;99.90;;;;;;6001395;23;20028;-86
2022/09/18 05:55:37;;;;;;;8.60;1.92;;;11.10;99.90;;;;;;6002017;23;20015;-87
2022/09/18 05:58:04;;;;;;;7.40;1.65;;;11.10;99.90;;;;;;6002814;23;20020;-85
2022/09/18 06:00:31;;;;;;;7.55;1.50;;;11.10;99.90;;;;;;6003328;23;20414;-84
2022/09/18 06:03:03;;;;;;;8.27;1.50;;;11.10;99.90;;;;;;6002608;23;20082;-83
2022/09/18 06:05:31;;;;;;;9.48;1.77;;;11.00;99.90;;;;;;6003585;23;20040;-83
2022/09/18 06:07:58;;;;;;;7.45;1.70;;;11.10;99.90;;;;;;6002767;23;20015;-85
2022/09/18 06:10:24;;;;;;;7.32;1.63;;;11.10;99.90;;;;;;6003897;23;20159;-84
2022/09/18 06:12:58;;;;;;;9.95;1.80;;;11.00;99.90;;;;;;6001698;23;20082;-84
2022/09/18 06:15:23;;;;;;;10.02;2.13;;;11.10;99.90;;;;;;6003473;23;20406;-85
2022/09/18 06:17:52;;;;;;;9.68;1.80;;;11.00;99.90;;;;;;6004839;23;20020;-84
2022/09/18 06:20:18;;;;;;;9.90;1.80;;;11.10;99.90;;;;;;6004928;23;20047;-85
2022/09/18 06:22:44;;;;;;;8.60;1.88;;;11.10;99.90;;;;;;6004641;23;20015;-85
2022/09/18 06:25:10;;;;;;;7.80;1.70;;;11.10;99.90;;;;;;6001322;23;20051;-84
2022/09/18 06:27:35;;;;;;;8.45;1.50;;;11.00;99.90;;;;;;6001583;23;20477;-84
2022/09/18 06:30:01;;;;;;;9.35;1.70;;;11.10;99.90;;;;;;6003688;23;20022;-84
2022/09/18 06:32:27;;;;;;;9.82;1.90;;;11.10;99.90;;;;;;6005007;23;20362;-84
2022/09/18 06:34:52;;;;;;;9.60;1.80;;;11.10;99.90;;;;;;5979500;23;20043;-84
2022/09/18 06:37:18;;;;;;;8.93;1.50;;;11.10;99.90;;;;;;6004303;23;20470;-85
2022/09/18 06:39:44;;;;;;;6.65;1.48;;;11.10;99.90;;;;;;6003488;23;20101;-84
2022/09/18 06:42:09;;;;;;;7.78;1.90;;;11.10;99.90;;;;;;6001988;23;20023;-84
2022/09/18 06:44:36;;;;;;;7.30;1.55;;;11.10;99.90;;;;;;6004828;23;20012;-84
2022/09/18 06:47:02;;;;;;;8.73;1.70;;;11.10;99.90;;;;;;6003233;23;20024;-84
2022/09/18 06:49:27;;;;;;;8.30;2.10;;;11.10;99.90;;;;;;6003143;23;20438;-85
2022/09/18 06:51:53;;;;;;;6.32;1.83;;;11.10;99.90;;;;;;6002822;23;20019;-84
2022/09/18 06:54:19;;;;;;;8.02;2.03;;;11.10;99.90;;;;;;6003418;23;20421;-84
2022/09/18 06:56:45;;;;;;;8.15;1.70;;;11.10;99.90;;;;;;6003975;23;20322;-85
2022/09/18 06:59:11;;;;;;;7.82;2.17;;;11.10;99.90;;;;;;6005316;23;20072;-85
2022/09/18 07:01:37;;;;;;;5.50;1.40;;;11.10;99.90;;;;;;6001308;23;20024;-86
2022/09/18 07:04:03;;;;;;;7.60;1.50;;;11.10;99.90;;;;;;6002409;23;20059;-86
2022/09/18 07:06:29;;;;;;;7.80;1.63;;;11.20;99.90;;;;;;6001444;23;20035;-85
2022/09/18 07:08:55;;;;;;;8.55;1.80;;;11.20;99.90;;;;;;6004291;23;20087;-86
2022/09/18 07:11:21;;;;;;;8.68;1.83;;;11.20;99.90;;;;;;6005145;23;20023;-86
2022/09/18 07:13:47;;;;;;;10.52;2.00;;;11.20;99.90;;;;;;6004525;23;20043;-87
2022/09/18 07:16:13;;;;;;;10.65;1.85;;;11.20;99.90;;;;;;6002309;23;20144;-85
2022/09/18 07:18:39;;;;;;;7.95;1.80;;;11.20;99.90;;;;;;6001438;23;20447;-85
2022/09/18 07:21:04;;;;;;;8.70;1.73;;;11.20;99.90;;;;;;6002490;23;20026;-84
2022/09/18 07:23:32;;;;;;;7.57;1.75;;;11.20;99.90;;;;;;6003535;23;20026;-85
2022/09/18 07:26:01;;;;;;;6.68;1.40;;;11.20;99.90;;;;;;6004137;23;20011;-84
2022/09/18 07:28:28;;;;;;;7.00;1.73;;;11.20;99.90;;;;;;6002263;23;20008;-84
2022/09/18 07:30:54;;;;;;;8.55;1.70;;;11.30;99.90;;;;;;5979062;23;20024;-85
2022/09/18 07:33:20;;;;;;;8.00;1.88;;;11.20;99.90;;;;;;6001662;23;20039;-87
2022/09/18 07:35:46;;;;;;;7.03;1.70;;;11.30;99.90;;;;;;6001041;23;20095;-87
2022/09/18 07:38:12;;;;;;;8.73;1.73;;;11.30;99.90;;;;;;6002927;23;20485;-87
2022/09/18 07:40:40;;;;;;;10.48;2.08;;;11.30;99.90;;;;;;5979544;23;20047;-86
2022/09/18 07:43:07;;;;;;;9.45;1.90;;;11.30;99.90;;;;;;6002953;23;20075;-86
2022/09/18 07:45:34;;;;;;;9.10;1.85;;;11.40;99.90;;;;;;6003880;23;20022;-86
2022/09/18 07:48:04;;;;;;;7.00;1.50;;;11.30;99.90;;;;;;6004716;23;20087;-86
2022/09/18 07:50:30;;;;;;;8.65;1.55;;;11.30;99.90;;;;;;6002224;23;20028;-86
2022/09/18 07:52:58;;;;;;;8.73;1.80;;;11.20;99.90;;;;;;6002883;23;20382;-86
2022/09/18 07:55:25;;;;;;;9.27;1.85;;;11.30;99.90;;;;;;6002000;23;20039;-86
2022/09/18 07:57:57;;;;;;;7.10;1.60;;;11.30;99.90;;;;;;6002538;23;20024;-87
2022/09/18 08:00:28;;;;;;;8.65;1.63;;;11.30;99.90;;;;;;6004846;23;20015;-86
2022/09/18 08:03:03;;;;;;;10.13;2.33;;;11.30;99.90;;;;;;6003157;23;20405;-86
2022/09/18 08:05:29;;;;;;;8.07;1.90;;;11.20;99.90;;;;;;6003880;23;20047;-86
2022/09/18 08:07:55;;;;;;;8.23;2.08;;;11.20;99.90;;;;;;6003928;23;20042;-85
2022/09/18 08:10:21;;;;;;;8.88;1.85;;;11.20;99.90;;;;;;6002644;23;20012;-85
2022/09/18 08:12:46;;;;;;;10.98;1.85;;;11.20;99.90;;;;;;6000716;23;20022;-87
2022/09/18 08:15:12;;;;;;;6.38;1.95;;;11.20;99.90;;;;;;6002572;23;20611;-86
2022/09/18 08:17:45;;;;;;;9.73;2.30;;;11.20;99.90;;;;;;6001656;23;20023;-85
2022/09/18 08:20:11;;;;;;;8.40;1.95;;;11.20;99.90;;;;;;6000327;23;20016;-86
2022/09/18 08:22:40;;;;;;;9.15;2.10;;;11.20;99.90;;;;;;6001946;23;20016;-86
2022/09/18 08:25:07;;;;;;;7.75;1.75;;;11.20;99.90;;;;;;6002476;23;20451;-86
2022/09/18 08:27:39;;;;;;;7.88;1.92;;;11.20;99.90;;;;;;6003907;23;20394;-87
2022/09/18 08:30:06;;;;;;;8.25;1.95;;;11.20;99.90;;;;;;6004192;23;20016;-86
2022/09/18 08:32:32;;;;;;;7.20;1.48;;;11.20;99.90;;;;;;6003674;23;20016;-86
2022/09/18 08:34:59;;;;;;;9.32;1.73;;;11.20;99.90;;;;;;6003714;23;20016;-86
2022/09/18 08:37:25;;;;;;;6.47;1.50;;;11.20;99.90;;;;;;6002129;23;20054;-86
2022/09/18 08:39:51;;;;;;;6.57;1.40;;;11.20;99.90;;;;;;6003447;23;20329;-87
2022/09/18 08:42:39;;;;;;;7.57;1.65;;;11.30;99.90;;;;;;6002170;23;20087;-86
2022/09/18 08:45:34;;;;;;;9.70;1.90;;;11.30;99.90;;;;;;6003541;23;20019;-87
2022/09/18 08:48:13;;;;;;;6.20;1.73;;;11.30;99.90;;;;;;6004794;23;20031;-86
2022/09/18 08:50:42;;;;;;;7.05;1.60;;;11.40;99.90;;;;;;6003810;23;20541;-87
2022/09/18 08:53:27;;;;;;;7.57;1.55;;;11.40;99.90;;;;;;6003898;23;20162;-86
2022/09/18 08:55:54;;;;;;;6.78;1.52;;;11.40;99.90;;;;;;6004081;23;20022;-88
2022/09/18 08:58:24;;;;;;;7.32;1.70;;;11.50;99.90;;;;;;6002620;23;20016;-87
2022/09/18 09:00:57;;;;;;;8.20;1.85;;;11.50;99.90;;;;;;5979036;23;20681;-87
2022/09/18 09:03:56;;;;;;;9.52;1.92;;;11.50;99.90;;;;;;6003530;23;20024;-87
2022/09/18 09:07:00;;;;;;;7.75;1.92;;;11.50;99.90;;;;;;6001512;23;20027;-87
2022/09/18 09:09:48;;;;;;;7.97;1.90;;;11.50;99.90;;;;;;6004269;23;20307;-86
2022/09/18 09:12:39;;;;;;;6.40;1.80;;;11.50;99.90;;;;;;6002441;23;20012;-86
2022/09/18 09:15:28;;;;;;;7.47;1.90;;;11.50;99.90;;;;;;6002286;23;20119;-85
2022/09/18 09:18:17;;;;;;;5.28;1.90;;;11.50;99.90;;;;;;6002828;23;20046;-86
2022/09/18 09:20:55;;;;;;;7.72;2.08;;;11.60;99.90;;;;;;6003308;23;20023;-86
2022/09/18 09:23:43;;;;;;;7.28;2.10;;;11.60;99.90;;;;;;6004056;23;20016;-86
2022/09/18 09:26:13;;;;;;;7.38;1.90;;;11.60;99.90;;;;;;6001779;23;20349;-86
2022/09/18 09:28:50;;;;;;;7.60;2.00;;;11.70;99.90;;;;;;6003673;23;20084;-86
2022/09/18 09:31:19;;;;;;;8.70;1.70;;;11.70;99.90;;;;;;6003708;23;20019;-87
2022/09/18 09:34:10;;;;;;;6.70;1.52;;;11.70;99.90;;;;;;6002108;23;20084;-86
2022/09/18 09:36:37;;;;;;;;;;;11.70;99.90;;;;;;6001835;23;20028;-86
2022/09/18 09:39:21;;;;;;;6.40;1.52;;;11.60;99.90;;;;;;5978522;23;20346;-87
2022/09/18 09:41:55;;;;;;;9.02;2.05;;;11.70;99.90;;;;;;6001588;23;20027;-87
2022/09/18 09:44:31;;;;;;;7.30;1.50;;;11.70;99.90;;;;;;6003578;23;20016;-87
2022/09/18 09:47:25;;;;;;;7.38;1.63;;;11.80;99.90;;;;;;6002921;23;20062;-87
2022/09/18 09:50:19;;;;;;;6.90;1.50;;;11.80;99.90;;;;;;6028036;23;20303;-87
2022/09/18 09:52:45;;;;;;;8.85;2.10;;;11.80;99.90;;;;;;6003822;23;20493;-87
2022/09/18 09:55:15;;;;;;;7.47;1.52;;;11.80;99.90;;;;;;6006567;23;20012;-86
2022/09/18 09:57:53;;;;;;;9.13;1.90;;;11.80;99.90;;;;;;6004168;23;20446;-87
2022/09/18 10:00:19;;;;;;;7.70;1.50;;;11.80;99.90;;;;;;6002643;23;20072;-86
2022/09/18 10:03:09;;;;;;;9.00;2.20;;;11.80;99.90;;;;;;6001679;23;20028;-86
2022/09/18 10:06:04;;;;;;;10.88;2.20;;;11.80;99.90;;;;;;6002924;23;20343;-87
2022/09/18 10:08:43;;;;;;;7.75;2.30;;;11.80;99.90;;;;;;5895840;24;20371;-86
2022/09/18 10:11:11;;;;;;;8.85;2.00;;;11.80;99.90;;;;;;5896480;24;20024;-86
2022/09/18 10:13:59;;;;;;;8.05;1.58;;;11.80;99.90;;;;;;5895634;24;20072;-86
2022/09/18 10:16:47;;;;;;;6.53;1.52;;;11.80;99.90;;;;;;5918641;24;20024;-86
2022/09/18 10:19:17;;;;;;;6.38;1.25;;;11.80;99.90;;;;;;5895504;24;20427;-85
2022/09/18 10:21:44;;;;;;;8.95;1.90;;;11.80;99.90;;;;;;5895679;24;20506;-85
2022/09/18 10:24:30;;;;;;;8.30;1.88;;;11.80;99.90;;;;;;5918530;24;20383;-85
2022/09/18 10:27:09;;;;;;;7.75;1.95;;;11.80;99.90;;;;;;5918612;24;20021;-87
2022/09/18 10:29:34;;;;;;;7.18;1.70;;;11.80;99.90;;;;;;5918958;24;20467;-86
2022/09/18 10:32:00;;;;;;;9.07;1.60;;;11.80;99.90;;;;;;5919629;24;20020;-86
2022/09/18 10:34:49;;;;;;;9.18;2.00;;;11.80;99.90;;;;;;5919231;24;20113;-87
2022/09/18 10:37:34;;;;;;;6.30;2.15;;;11.90;99.90;;;;;;5919320;24;20013;-86
2022/09/18 10:40:01;;;;;;;9.50;2.70;;;11.90;99.90;;;;;;5895491;24;20273;-87
2022/09/18 10:42:35;;;;;;;8.63;1.75;;;11.90;99.90;;;;;;5919037;24;20017;-86
2022/09/18 10:45:04;;;;;;;6.35;1.40;;;12.00;99.90;;;;;;5929762;23;20019;-87
2022/09/18 10:47:35;;;;;;;8.68;1.90;;;12.00;99.90;;;;;;6005779;23;20110;-87
2022/09/18 10:50:10;;;;;;;6.70;1.50;;;12.00;99.90;;;;;;6003938;23;20095;-87
2022/09/18 10:52:52;;;;;;;7.53;1.67;;;12.00;99.90;;;;;;6005406;23;20019;-86
2022/09/18 10:55:26;;;;;;;7.70;1.52;;;12.10;99.90;;;;;;6003729;23;20016;-86
2022/09/18 10:58:02;;;;;;;9.27;1.80;;;12.10;99.90;;;;;;6002272;23;20036;-86
2022/09/18 11:00:29;;;;;;;6.90;1.85;;;12.10;99.90;;;;;;6004854;23;20059;-88
2022/09/18 11:03:22;;;;;;;7.20;1.55;;;12.10;99.90;;;;;;6005549;23;20023;-88
2022/09/18 11:05:57;;;;;;;8.57;1.77;;;12.10;99.90;;;;;;6005444;23;20020;-88
2022/09/18 11:08:32;;;;;;;6.68;1.85;;;12.10;99.90;;;;;;6004098;23;20067;-87
2022/09/18 11:11:05;;;;;;;9.30;2.00;;;12.20;99.90;;;;;;6005779;23;20315;-90
2022/09/18 11:13:34;;;;;;;7.68;1.48;;;12.10;99.90;;;;;;6003041;23;20051;-88
2022/09/18 11:16:02;;;;;;;8.38;1.85;;;12.10;99.90;;;;;;6003661;23;20012;-88
2022/09/18 11:18:30;;;;;;;9.80;1.75;;;12.20;99.90;;;;;;6006201;23;20016;-88
2022/09/18 11:21:01;;;;;;;8.95;1.95;;;12.20;99.90;;;;;;6006145;23;20012;-87
2022/09/18 11:23:35;;;;;;;7.47;1.95;;;12.10;99.90;;;;;;6004689;23;20019;-90
2022/09/18 11:26:25;;;;;;;6.60;1.63;;;12.10;99.90;;;;;;6006189;23;20114;-90
2022/09/18 11:29:00;;;;;;;8.10;1.70;;;12.00;99.90;;;;;;6006862;23;20019;-88
2022/09/18 11:32:05;;;;;;;7.95;2.03;;;12.10;99.90;;;;;;6008296;23;20098;-89
2022/09/18 11:34:35;;;;;;;9.05;2.08;;;12.10;99.90;;;;;;5987218;23;20206;-88
2022/09/18 11:37:07;;;;;;;9.65;2.08;;;12.20;99.90;;;;;;6005582;23;20026;-89
2022/09/18 11:39:41;;;;;;;7.47;1.98;;;12.20;99.90;;;;;;6005264;23;20067;-90
2022/09/18 11:42:13;;;;;;;8.88;2.10;;;12.30;99.90;;;;;;6005379;23;20012;-88
2022/09/18 11:44:39;;;;;;;10.27;2.10;;;12.40;99.90;;;;;;6004134;23;20028;-90
2022/09/18 11:47:32;;;;;;;8.60;3.15;;;12.40;99.90;;;;;;6003683;23;20399;-90
2022/09/18 11:50:13;;;;;;;9.52;2.55;;;12.40;99.90;;;;;;6002949;23;20016;-90
2022/09/18 11:52:43;;;;;;;8.15;2.15;;;12.50;99.90;;;;;;6004267;23;20027;-90
2022/09/18 11:55:13;;;;;;;10.20;2.38;;;12.50;99.90;;;;;;6005205;23;20098;-89
2022/09/18 11:57:43;;;;;;;8.38;1.90;;;12.60;99.90;;;;;;6005541;23;20027;-89
2022/09/18 12:00:16;;;;;;;10.23;2.75;;;12.60;99.90;;;;;;6006015;23;20012;-89
2022/09/18 12:03:12;;;;;;;9.85;2.08;;;12.60;99.90;;;;;;6001845;23;20007;-90
2022/09/18 12:05:38;;;;;;;8.65;2.22;;;12.70;99.90;;;;;;6001500;23;20370;-87
2022/09/18 12:08:21;;;;;;;8.68;2.08;;;12.70;99.90;;;;;;6003122;23;20020;-88
2022/09/18 12:10:56;;;;;;;7.13;1.63;;;12.80;99.90;;;;;;6003225;23;20039;-88
2022/09/18 12:13:45;;;;;;;8.35;2.20;;;12.90;99.90;;;;;;6002655;23;20020;-87
2022/09/18 12:16:16;;;;;;;10.07;2.22;;;12.90;99.90;;;;;;6004763;23;20845;-87
2022/09/18 12:19:23;;;;;;;9.73;2.00;;;12.90;99.90;;;;;;6001792;23;20346;-88
2022/09/18 12:22:10;;;;;;;10.80;2.50;;;13.00;99.90;;;;;;5917326;24;20092;-87
2022/09/18 12:24:36;;;;;;;10.93;2.35;;;13.00;99.90;;;;;;5894437;24;20048;-87
2022/09/18 12:27:22;;;;;;;10.10;2.50;;;13.10;99.90;;;;;;5915618;24;20021;-85
2022/09/18 12:30:19;;;;;;;11.35;2.40;;;13.10;99.90;;;;;;5915987;24;20028;-86
2022/09/18 12:33:15;;;;;;;9.60;3.17;;;13.10;99.90;;;;;;5916424;24;20096;-87
2022/09/18 12:36:08;;;;;;;8.30;1.90;;;13.20;99.90;;;;;;5916298;24;20035;-88
2022/09/18 12:38:49;;;;;;;9.95;2.40;;;13.20;99.90;;;;;;5892368;24;20032;-89
2022/09/18 12:41:15;;;;;;;;;;;13.20;99.90;;;;;;5916809;24;20028;-87
2022/09/18 12:44:02;;;;;;;9.02;1.75;;;13.20;99.90;;;;;;5870615;24;19915;-87
2022/09/18 12:46:39;;;;;;;9.80;1.88;;;13.20;99.90;;;;;;5893615;24;20122;-88
2022/09/18 12:49:21;;;;;;;10.57;1.88;;;13.30;99.90;;;;;;5892893;24;20090;-86
2022/09/18 12:52:13;;;;;;;9.52;1.70;;;13.40;99.90;;;;;;5891390;24;20021;-85
2022/09/18 12:54:50;;;;;;;9.25;1.70;;;13.40;99.90;;;;;;5892372;24;20085;-86
2022/09/18 12:57:22;;;;;;;9.43;1.95;;;13.30;99.90;;;;;;5939012;23;20099;-85
2022/09/18 13:00:08;;;;;;;10.38;2.13;;;13.40;99.90;;;;;;6005258;23;20346;-87
2022/09/18 13:03:09;;;;;;;7.97;2.15;;;13.40;99.90;;;;;;6001034;23;20030;-88
2022/09/18 13:05:51;;;;;;;8.07;2.10;;;13.40;99.90;;;;;;6001130;23;20418;-87
2022/09/18 13:08:29;;;;;;;10.23;1.85;;;13.40;99.90;;;;;;6001197;23;20015;-87
2022/09/18 13:11:00;;;;;;;11.02;2.20;;;13.30;99.90;;;;;;6003137;23;20043;-86
2022/09/18 13:13:50;;;;;;;7.85;1.70;;;13.30;99.90;;;;;;6006835;23;20016;-86